sensor_id;sensor_type;location;lat;lon;timestamp;P1;durP1;ratioP1;P2;durP2;ratioP2
61907;SDS011;47864;52.526;19.672;2023-03-16T00:00:31;48.53;;;27.77;;
61907;SDS011;47864;52.526;19.672;2023-03-16T00:02:32;56.95;;;27.52;;
61907;SDS011;47864;52.526;19.672;2023-03-16T00:04:34;62.72;;;34.55;;
61907;SDS011;47864;52.526;19.672;2023-03-16T00:06:36;63.22;;;33.95;;
61907;SDS011;47864;52.526;19.672;2023-03-16T00:08:37;65.07;;;35.75;;
61907;SDS011;47864;52.526;19.672;2023-03-16T00:10:39;64.55;;;35.17;;
61907;SDS011;47864;52.526;19.672;2023-03-16T00:12:40;59.08;;;31.48;;
61907;SDS011;47864;52.526;19.672;2023-03-16T00:14:46;62.05;;;34.13;;
61907;SDS011;47864;52.526;19.672;2023-03-16T00:16:48;56.00;;;30.25;;
61907;SDS011;47864;52.526;19.672;2023-03-16T00:18:50;61.13;;;32.67;;
61907;SDS011;47864;52.526;19.672;2023-03-16T00:20:52;59.55;;;30.67;;
61907;SDS011;47864;52.526;19.672;2023-03-16T00:24:57;50.90;;;28.73;;
61907;SDS011;47864;52.526;19.672;2023-03-16T00:26:58;54.95;;;27.92;;
61907;SDS011;47864;52.526;19.672;2023-03-16T00:28:59;50.58;;;27.05;;
61907;SDS011;47864;52.526;19.672;2023-03-16T00:31:02;49.55;;;25.23;;
61907;SDS011;47864;52.526;19.672;2023-03-16T00:33:04;48.53;;;26.63;;
61907;SDS011;47864;52.526;19.672;2023-03-16T00:35:06;55.80;;;27.50;;
61907;SDS011;47864;52.526;19.672;2023-03-16T00:37:10;53.08;;;28.30;;
61907;SDS011;47864;52.526;19.672;2023-03-16T00:39:12;48.03;;;26.85;;
61907;SDS011;47864;52.526;19.672;2023-03-16T00:41:14;51.22;;;27.98;;
61907;SDS011;47864;52.526;19.672;2023-03-16T00:43:16;47.67;;;25.95;;
61907;SDS011;47864;52.526;19.672;2023-03-16T00:45:17;51.50;;;28.63;;
61907;SDS011;47864;52.526;19.672;2023-03-16T00:47:19;57.78;;;30.17;;
61907;SDS011;47864;52.526;19.672;2023-03-16T00:49:20;52.17;;;25.63;;
61907;SDS011;47864;52.526;19.672;2023-03-16T00:51:22;57.72;;;27.85;;
61907;SDS011;47864;52.526;19.672;2023-03-16T00:53:23;49.63;;;25.80;;
61907;SDS011;47864;52.526;19.672;2023-03-16T00:55:25;53.58;;;25.83;;
61907;SDS011;47864;52.526;19.672;2023-03-16T00:57:26;52.60;;;25.65;;
61907;SDS011;47864;52.526;19.672;2023-03-16T00:59:28;47.78;;;24.75;;
61907;SDS011;47864;52.526;19.672;2023-03-16T01:01:30;44.75;;;23.83;;
61907;SDS011;47864;52.526;19.672;2023-03-16T01:03:32;47.33;;;24.13;;
61907;SDS011;47864;52.526;19.672;2023-03-16T01:05:38;47.03;;;23.70;;
61907;SDS011;47864;52.526;19.672;2023-03-16T01:07:40;39.35;;;22.10;;
61907;SDS011;47864;52.526;19.672;2023-03-16T01:09:42;44.47;;;22.90;;
61907;SDS011;47864;52.526;19.672;2023-03-16T01:11:44;44.75;;;22.05;;
61907;SDS011;47864;52.526;19.672;2023-03-16T01:13:46;44.28;;;24.33;;
61907;SDS011;47864;52.526;19.672;2023-03-16T01:15:49;49.08;;;24.70;;
61907;SDS011;47864;52.526;19.672;2023-03-16T01:17:51;48.90;;;22.70;;
61907;SDS011;47864;52.526;19.672;2023-03-16T01:19:53;47.88;;;22.85;;
61907;SDS011;47864;52.526;19.672;2023-03-16T01:21:54;45.58;;;21.83;;
61907;SDS011;47864;52.526;19.672;2023-03-16T01:23:56;52.33;;;27.10;;
61907;SDS011;47864;52.526;19.672;2023-03-16T01:25:57;52.92;;;25.70;;
61907;SDS011;47864;52.526;19.672;2023-03-16T01:27:59;49.42;;;24.70;;
61907;SDS011;47864;52.526;19.672;2023-03-16T01:30:01;46.03;;;24.02;;
61907;SDS011;47864;52.526;19.672;2023-03-16T01:32:03;45.55;;;23.02;;
61907;SDS011;47864;52.526;19.672;2023-03-16T01:34:05;39.90;;;23.10;;
61907;SDS011;47864;52.526;19.672;2023-03-16T01:36:08;48.22;;;24.52;;
61907;SDS011;47864;52.526;19.672;2023-03-16T01:38:14;45.33;;;24.13;;
61907;SDS011;47864;52.526;19.672;2023-03-16T01:40:16;50.35;;;23.65;;
61907;SDS011;47864;52.526;19.672;2023-03-16T01:42:17;52.20;;;24.48;;
61907;SDS011;47864;52.526;19.672;2023-03-16T01:44:23;47.92;;;24.58;;
61907;SDS011;47864;52.526;19.672;2023-03-16T01:46:26;49.85;;;24.27;;
61907;SDS011;47864;52.526;19.672;2023-03-16T01:48:33;48.13;;;24.63;;
61907;SDS011;47864;52.526;19.672;2023-03-16T01:50:50;49.88;;;24.58;;
61907;SDS011;47864;52.526;19.672;2023-03-16T01:52:53;44.97;;;22.85;;
61907;SDS011;47864;52.526;19.672;2023-03-16T01:54:56;47.30;;;22.13;;
61907;SDS011;47864;52.526;19.672;2023-03-16T01:59:08;46.45;;;23.42;;
61907;SDS011;47864;52.526;19.672;2023-03-16T02:01:14;43.15;;;23.35;;
61907;SDS011;47864;52.526;19.672;2023-03-16T02:03:17;55.08;;;25.67;;
61907;SDS011;47864;52.526;19.672;2023-03-16T02:05:25;48.70;;;25.73;;
61907;SDS011;47864;52.526;19.672;2023-03-16T02:07:39;46.88;;;24.08;;
61907;SDS011;47864;52.526;19.672;2023-03-16T02:09:44;53.28;;;24.95;;
61907;SDS011;47864;52.526;19.672;2023-03-16T02:11:48;50.15;;;25.80;;
61907;SDS011;47864;52.526;19.672;2023-03-16T02:13:50;47.78;;;24.88;;
61907;SDS011;47864;52.526;19.672;2023-03-16T02:15:52;46.17;;;22.98;;
61907;SDS011;47864;52.526;19.672;2023-03-16T02:17:53;45.47;;;23.05;;
61907;SDS011;47864;52.526;19.672;2023-03-16T02:22:05;55.67;;;26.65;;
61907;SDS011;47864;52.526;19.672;2023-03-16T02:24:07;47.75;;;23.30;;
61907;SDS011;47864;52.526;19.672;2023-03-16T02:26:12;46.90;;;23.23;;
61907;SDS011;47864;52.526;19.672;2023-03-16T02:28:31;48.85;;;24.38;;
61907;SDS011;47864;52.526;19.672;2023-03-16T02:30:37;45.47;;;23.20;;
61907;SDS011;47864;52.526;19.672;2023-03-16T02:32:39;48.42;;;24.50;;
61907;SDS011;47864;52.526;19.672;2023-03-16T02:34:42;52.22;;;25.15;;
61907;SDS011;47864;52.526;19.672;2023-03-16T02:36:44;47.55;;;24.02;;
61907;SDS011;47864;52.526;19.672;2023-03-16T02:38:48;47.63;;;23.02;;
61907;SDS011;47864;52.526;19.672;2023-03-16T02:40:55;46.47;;;23.77;;
61907;SDS011;47864;52.526;19.672;2023-03-16T02:43:01;41.22;;;21.95;;
61907;SDS011;47864;52.526;19.672;2023-03-16T02:45:05;47.33;;;22.15;;
61907;SDS011;47864;52.526;19.672;2023-03-16T02:47:12;42.00;;;20.88;;
61907;SDS011;47864;52.526;19.672;2023-03-16T02:49:22;44.93;;;21.63;;
61907;SDS011;47864;52.526;19.672;2023-03-16T02:51:28;47.55;;;23.42;;
61907;SDS011;47864;52.526;19.672;2023-03-16T02:53:30;43.60;;;21.30;;
61907;SDS011;47864;52.526;19.672;2023-03-16T02:55:32;46.20;;;24.15;;
61907;SDS011;47864;52.526;19.672;2023-03-16T02:57:33;44.35;;;22.95;;
61907;SDS011;47864;52.526;19.672;2023-03-16T02:59:35;49.67;;;25.35;;
61907;SDS011;47864;52.526;19.672;2023-03-16T03:01:36;45.58;;;25.00;;
61907;SDS011;47864;52.526;19.672;2023-03-16T03:03:38;48.08;;;24.70;;
61907;SDS011;47864;52.526;19.672;2023-03-16T03:05:40;55.60;;;24.02;;
61907;SDS011;47864;52.526;19.672;2023-03-16T03:07:41;46.03;;;23.70;;
61907;SDS011;47864;52.526;19.672;2023-03-16T03:09:43;46.42;;;23.35;;
61907;SDS011;47864;52.526;19.672;2023-03-16T03:11:45;50.88;;;25.52;;
61907;SDS011;47864;52.526;19.672;2023-03-16T03:13:46;49.92;;;24.10;;
61907;SDS011;47864;52.526;19.672;2023-03-16T03:15:48;47.95;;;24.08;;
61907;SDS011;47864;52.526;19.672;2023-03-16T03:17:49;46.25;;;24.95;;
61907;SDS011;47864;52.526;19.672;2023-03-16T03:19:51;46.50;;;24.95;;
61907;SDS011;47864;52.526;19.672;2023-03-16T03:21:52;51.85;;;25.75;;
61907;SDS011;47864;52.526;19.672;2023-03-16T03:23:54;50.58;;;25.40;;
61907;SDS011;47864;52.526;19.672;2023-03-16T03:25:56;54.38;;;24.35;;
61907;SDS011;47864;52.526;19.672;2023-03-16T03:27:59;53.22;;;24.67;;
61907;SDS011;47864;52.526;19.672;2023-03-16T03:30:01;54.13;;;27.52;;
61907;SDS011;47864;52.526;19.672;2023-03-16T03:32:02;54.45;;;26.85;;
61907;SDS011;47864;52.526;19.672;2023-03-16T03:34:04;74.60;;;32.42;;
61907;SDS011;47864;52.526;19.672;2023-03-16T03:36:06;171.70;;;60.55;;
61907;SDS011;47864;52.526;19.672;2023-03-16T03:38:08;95.60;;;39.97;;
61907;SDS011;47864;52.526;19.672;2023-03-16T03:40:10;61.30;;;29.42;;
61907;SDS011;47864;52.526;19.672;2023-03-16T03:42:14;61.28;;;30.13;;
61907;SDS011;47864;52.526;19.672;2023-03-16T03:44:15;65.18;;;30.77;;
61907;SDS011;47864;52.526;19.672;2023-03-16T03:46:17;61.90;;;29.63;;
61907;SDS011;47864;52.526;19.672;2023-03-16T03:48:19;56.00;;;28.77;;
61907;SDS011;47864;52.526;19.672;2023-03-16T03:50:20;54.83;;;26.90;;
61907;SDS011;47864;52.526;19.672;2023-03-16T03:52:22;62.05;;;27.95;;
61907;SDS011;47864;52.526;19.672;2023-03-16T03:54:24;61.33;;;27.95;;
61907;SDS011;47864;52.526;19.672;2023-03-16T03:56:25;69.25;;;30.58;;
61907;SDS011;47864;52.526;19.672;2023-03-16T03:58:27;58.15;;;29.50;;
61907;SDS011;47864;52.526;19.672;2023-03-16T04:00:29;66.75;;;31.63;;
61907;SDS011;47864;52.526;19.672;2023-03-16T04:02:30;59.10;;;30.70;;
61907;SDS011;47864;52.526;19.672;2023-03-16T04:04:32;68.78;;;31.13;;
61907;SDS011;47864;52.526;19.672;2023-03-16T04:06:33;64.35;;;31.92;;
61907;SDS011;47864;52.526;19.672;2023-03-16T04:08:35;71.28;;;35.05;;
61907;SDS011;47864;52.526;19.672;2023-03-16T04:10:37;79.93;;;37.20;;
61907;SDS011;47864;52.526;19.672;2023-03-16T04:12:38;73.65;;;36.00;;
61907;SDS011;47864;52.526;19.672;2023-03-16T04:14:40;78.68;;;36.92;;
61907;SDS011;47864;52.526;19.672;2023-03-16T04:16:41;91.25;;;39.33;;
61907;SDS011;47864;52.526;19.672;2023-03-16T04:18:43;90.68;;;40.20;;
61907;SDS011;47864;52.526;19.672;2023-03-16T04:20:44;93.00;;;40.40;;
61907;SDS011;47864;52.526;19.672;2023-03-16T04:22:46;104.55;;;42.88;;
61907;SDS011;47864;52.526;19.672;2023-03-16T04:24:48;87.70;;;40.03;;
61907;SDS011;47864;52.526;19.672;2023-03-16T04:26:50;97.93;;;42.83;;
61907;SDS011;47864;52.526;19.672;2023-03-16T04:28:51;97.95;;;43.47;;
61907;SDS011;47864;52.526;19.672;2023-03-16T04:30:53;110.80;;;45.05;;
61907;SDS011;47864;52.526;19.672;2023-03-16T04:32:54;107.75;;;46.90;;
61907;SDS011;47864;52.526;19.672;2023-03-16T04:34:56;102.65;;;47.15;;
61907;SDS011;47864;52.526;19.672;2023-03-16T04:36:58;164.25;;;61.38;;
61907;SDS011;47864;52.526;19.672;2023-03-16T04:38:59;160.43;;;62.50;;
61907;SDS011;47864;52.526;19.672;2023-03-16T04:41:01;170.10;;;64.05;;
61907;SDS011;47864;52.526;19.672;2023-03-16T04:43:04;138.80;;;54.42;;
61907;SDS011;47864;52.526;19.672;2023-03-16T04:45:06;139.98;;;54.17;;
61907;SDS011;47864;52.526;19.672;2023-03-16T04:47:08;149.05;;;56.15;;
61907;SDS011;47864;52.526;19.672;2023-03-16T04:49:10;129.38;;;53.88;;
61907;SDS011;47864;52.526;19.672;2023-03-16T04:51:11;127.88;;;53.63;;
61907;SDS011;47864;52.526;19.672;2023-03-16T04:53:13;137.63;;;52.88;;
61907;SDS011;47864;52.526;19.672;2023-03-16T04:55:14;137.30;;;56.47;;
61907;SDS011;47864;52.526;19.672;2023-03-16T04:57:16;110.55;;;51.67;;
61907;SDS011;47864;52.526;19.672;2023-03-16T04:59:17;123.63;;;52.45;;
61907;SDS011;47864;52.526;19.672;2023-03-16T05:01:19;123.85;;;50.72;;
61907;SDS011;47864;52.526;19.672;2023-03-16T05:03:20;112.65;;;51.20;;
61907;SDS011;47864;52.526;19.672;2023-03-16T05:05:22;124.03;;;51.38;;
61907;SDS011;47864;52.526;19.672;2023-03-16T05:07:24;119.78;;;52.78;;
61907;SDS011;47864;52.526;19.672;2023-03-16T05:09:25;126.80;;;52.67;;
61907;SDS011;47864;52.526;19.672;2023-03-16T05:11:26;116.95;;;51.13;;
61907;SDS011;47864;52.526;19.672;2023-03-16T05:13:28;109.35;;;49.92;;
61907;SDS011;47864;52.526;19.672;2023-03-16T05:15:30;119.85;;;51.63;;
61907;SDS011;47864;52.526;19.672;2023-03-16T05:17:31;100.78;;;48.70;;
61907;SDS011;47864;52.526;19.672;2023-03-16T05:19:33;106.68;;;47.53;;
61907;SDS011;47864;52.526;19.672;2023-03-16T05:21:35;100.72;;;45.20;;
61907;SDS011;47864;52.526;19.672;2023-03-16T05:23:36;101.75;;;44.03;;
61907;SDS011;47864;52.526;19.672;2023-03-16T05:25:38;86.75;;;40.72;;
61907;SDS011;47864;52.526;19.672;2023-03-16T05:27:43;93.68;;;43.63;;
61907;SDS011;47864;52.526;19.672;2023-03-16T05:29:46;88.28;;;41.63;;
61907;SDS011;47864;52.526;19.672;2023-03-16T05:31:48;89.38;;;43.78;;
61907;SDS011;47864;52.526;19.672;2023-03-16T05:33:49;88.68;;;43.33;;
61907;SDS011;47864;52.526;19.672;2023-03-16T05:35:52;83.70;;;42.47;;
61907;SDS011;47864;52.526;19.672;2023-03-16T05:37:54;82.95;;;41.90;;
61907;SDS011;47864;52.526;19.672;2023-03-16T05:39:55;83.85;;;44.80;;
61907;SDS011;47864;52.526;19.672;2023-03-16T05:41:57;92.13;;;48.20;;
61907;SDS011;47864;52.526;19.672;2023-03-16T05:43:59;92.70;;;47.97;;
61907;SDS011;47864;52.526;19.672;2023-03-16T05:46:00;93.15;;;49.15;;
61907;SDS011;47864;52.526;19.672;2023-03-16T05:48:02;97.78;;;56.78;;
61907;SDS011;47864;52.526;19.672;2023-03-16T05:50:04;106.97;;;54.92;;
61907;SDS011;47864;52.526;19.672;2023-03-16T05:52:06;98.20;;;53.97;;
61907;SDS011;47864;52.526;19.672;2023-03-16T05:54:08;104.60;;;60.35;;
61907;SDS011;47864;52.526;19.672;2023-03-16T05:56:10;106.35;;;58.05;;
61907;SDS011;47864;52.526;19.672;2023-03-16T05:58:11;91.22;;;50.92;;
61907;SDS011;47864;52.526;19.672;2023-03-16T06:00:13;85.50;;;48.85;;
61907;SDS011;47864;52.526;19.672;2023-03-16T06:02:15;94.15;;;47.80;;
61907;SDS011;47864;52.526;19.672;2023-03-16T06:04:17;82.40;;;45.33;;
61907;SDS011;47864;52.526;19.672;2023-03-16T06:06:19;91.70;;;48.03;;
61907;SDS011;47864;52.526;19.672;2023-03-16T06:08:21;96.27;;;47.73;;
61907;SDS011;47864;52.526;19.672;2023-03-16T06:10:23;79.15;;;46.50;;
61907;SDS011;47864;52.526;19.672;2023-03-16T06:12:24;85.00;;;45.15;;
61907;SDS011;47864;52.526;19.672;2023-03-16T06:14:26;121.32;;;52.95;;
61907;SDS011;47864;52.526;19.672;2023-03-16T06:16:27;136.25;;;58.17;;
61907;SDS011;47864;52.526;19.672;2023-03-16T06:18:29;88.35;;;45.13;;
61907;SDS011;47864;52.526;19.672;2023-03-16T06:20:30;67.35;;;35.80;;
61907;SDS011;47864;52.526;19.672;2023-03-16T06:22:32;69.68;;;35.63;;
61907;SDS011;47864;52.526;19.672;2023-03-16T06:24:33;59.78;;;29.67;;
61907;SDS011;47864;52.526;19.672;2023-03-16T06:26:35;59.75;;;30.25;;
61907;SDS011;47864;52.526;19.672;2023-03-16T06:28:37;52.53;;;26.98;;
61907;SDS011;47864;52.526;19.672;2023-03-16T06:30:39;77.35;;;33.17;;
61907;SDS011;47864;52.526;19.672;2023-03-16T06:32:41;80.78;;;33.28;;
61907;SDS011;47864;52.526;19.672;2023-03-16T06:34:42;220.77;;;85.90;;
61907;SDS011;47864;52.526;19.672;2023-03-16T06:36:44;42.25;;;22.73;;
61907;SDS011;47864;52.526;19.672;2023-03-16T06:38:46;45.53;;;23.15;;
61907;SDS011;47864;52.526;19.672;2023-03-16T06:40:50;34.72;;;19.85;;
61907;SDS011;47864;52.526;19.672;2023-03-16T06:42:53;34.63;;;16.92;;
61907;SDS011;47864;52.526;19.672;2023-03-16T06:44:54;53.15;;;19.38;;
61907;SDS011;47864;52.526;19.672;2023-03-16T06:46:56;60.75;;;23.65;;
61907;SDS011;47864;52.526;19.672;2023-03-16T06:48:58;33.20;;;17.92;;
61907;SDS011;47864;52.526;19.672;2023-03-16T06:51:00;53.55;;;22.45;;
61907;SDS011;47864;52.526;19.672;2023-03-16T06:53:01;76.00;;;31.67;;
61907;SDS011;47864;52.526;19.672;2023-03-16T06:55:03;39.05;;;20.52;;
61907;SDS011;47864;52.526;19.672;2023-03-16T06:57:06;38.53;;;17.80;;
61907;SDS011;47864;52.526;19.672;2023-03-16T06:59:08;28.48;;;15.88;;
61907;SDS011;47864;52.526;19.672;2023-03-16T07:01:09;29.67;;;16.30;;
61907;SDS011;47864;52.526;19.672;2023-03-16T07:03:11;31.92;;;16.80;;
61907;SDS011;47864;52.526;19.672;2023-03-16T07:05:13;43.97;;;20.02;;
61907;SDS011;47864;52.526;19.672;2023-03-16T07:07:14;30.75;;;14.73;;
61907;SDS011;47864;52.526;19.672;2023-03-16T07:09:16;28.25;;;13.02;;
61907;SDS011;47864;52.526;19.672;2023-03-16T07:11:17;31.05;;;12.90;;
61907;SDS011;47864;52.526;19.672;2023-03-16T07:13:19;27.20;;;14.90;;
61907;SDS011;47864;52.526;19.672;2023-03-16T07:15:21;23.45;;;13.50;;
61907;SDS011;47864;52.526;19.672;2023-03-16T07:17:24;23.95;;;12.63;;
61907;SDS011;47864;52.526;19.672;2023-03-16T07:19:26;29.13;;;13.80;;
61907;SDS011;47864;52.526;19.672;2023-03-16T07:21:28;27.25;;;13.40;;
61907;SDS011;47864;52.526;19.672;2023-03-16T07:23:29;25.92;;;12.98;;
61907;SDS011;47864;52.526;19.672;2023-03-16T07:25:31;24.02;;;11.77;;
61907;SDS011;47864;52.526;19.672;2023-03-16T07:27:32;23.63;;;12.52;;
61907;SDS011;47864;52.526;19.672;2023-03-16T07:29:34;26.75;;;13.10;;
61907;SDS011;47864;52.526;19.672;2023-03-16T07:31:35;25.05;;;12.48;;
61907;SDS011;47864;52.526;19.672;2023-03-16T07:33:37;24.20;;;11.38;;
61907;SDS011;47864;52.526;19.672;2023-03-16T07:35:39;23.77;;;12.77;;
61907;SDS011;47864;52.526;19.672;2023-03-16T07:37:40;25.80;;;11.75;;
61907;SDS011;47864;52.526;19.672;2023-03-16T07:39:42;24.48;;;11.13;;
61907;SDS011;47864;52.526;19.672;2023-03-16T07:41:43;24.85;;;11.77;;
61907;SDS011;47864;52.526;19.672;2023-03-16T07:43:45;19.92;;;10.65;;
61907;SDS011;47864;52.526;19.672;2023-03-16T07:45:48;22.15;;;10.13;;
61907;SDS011;47864;52.526;19.672;2023-03-16T07:47:50;24.27;;;10.48;;
61907;SDS011;47864;52.526;19.672;2023-03-16T07:49:52;25.52;;;10.70;;
61907;SDS011;47864;52.526;19.672;2023-03-16T07:51:53;21.38;;;9.77;;
61907;SDS011;47864;52.526;19.672;2023-03-16T07:53:55;21.48;;;10.35;;
61907;SDS011;47864;52.526;19.672;2023-03-16T07:55:56;20.30;;;10.20;;
61907;SDS011;47864;52.526;19.672;2023-03-16T07:57:58;21.77;;;9.77;;
61907;SDS011;47864;52.526;19.672;2023-03-16T08:00:00;19.63;;;10.65;;
61907;SDS011;47864;52.526;19.672;2023-03-16T08:02:01;34.47;;;14.43;;
61907;SDS011;47864;52.526;19.672;2023-03-16T08:04:03;22.40;;;10.98;;
61907;SDS011;47864;52.526;19.672;2023-03-16T08:06:05;29.50;;;11.57;;
61907;SDS011;47864;52.526;19.672;2023-03-16T08:08:07;21.73;;;10.13;;
61907;SDS011;47864;52.526;19.672;2023-03-16T08:10:09;20.20;;;10.63;;
61907;SDS011;47864;52.526;19.672;2023-03-16T08:12:11;23.15;;;10.23;;
61907;SDS011;47864;52.526;19.672;2023-03-16T08:14:13;25.17;;;10.52;;
61907;SDS011;47864;52.526;19.672;2023-03-16T08:16:14;21.67;;;11.25;;
61907;SDS011;47864;52.526;19.672;2023-03-16T08:18:16;33.22;;;13.23;;
61907;SDS011;47864;52.526;19.672;2023-03-16T08:20:17;35.10;;;17.55;;
61907;SDS011;47864;52.526;19.672;2023-03-16T08:22:19;28.52;;;13.57;;
61907;SDS011;47864;52.526;19.672;2023-03-16T08:24:21;21.85;;;10.20;;
61907;SDS011;47864;52.526;19.672;2023-03-16T08:26:22;30.15;;;11.00;;
61907;SDS011;47864;52.526;19.672;2023-03-16T08:28:24;25.10;;;10.25;;
61907;SDS011;47864;52.526;19.672;2023-03-16T08:30:26;18.77;;;8.73;;
61907;SDS011;47864;52.526;19.672;2023-03-16T08:32:27;24.90;;;11.73;;
61907;SDS011;47864;52.526;19.672;2023-03-16T08:34:29;26.40;;;11.82;;
61907;SDS011;47864;52.526;19.672;2023-03-16T08:36:31;22.55;;;10.65;;
61907;SDS011;47864;52.526;19.672;2023-03-16T08:38:32;26.05;;;10.45;;
61907;SDS011;47864;52.526;19.672;2023-03-16T08:40:34;22.45;;;9.13;;
61907;SDS011;47864;52.526;19.672;2023-03-16T08:42:36;19.85;;;9.45;;
61907;SDS011;47864;52.526;19.672;2023-03-16T08:44:37;24.60;;;9.05;;
61907;SDS011;47864;52.526;19.672;2023-03-16T08:46:39;19.08;;;10.02;;
61907;SDS011;47864;52.526;19.672;2023-03-16T08:48:41;16.60;;;8.05;;
61907;SDS011;47864;52.526;19.672;2023-03-16T08:50:43;21.15;;;9.80;;
61907;SDS011;47864;52.526;19.672;2023-03-16T08:52:45;20.40;;;8.52;;
61907;SDS011;47864;52.526;19.672;2023-03-16T08:54:47;16.63;;;7.32;;
61907;SDS011;47864;52.526;19.672;2023-03-16T08:57:02;25.88;;;9.45;;
61907;SDS011;47864;52.526;19.672;2023-03-16T08:59:04;20.98;;;9.32;;
61907;SDS011;47864;52.526;19.672;2023-03-16T09:01:06;15.43;;;7.85;;
61907;SDS011;47864;52.526;19.672;2023-03-16T09:03:08;23.52;;;8.85;;
61907;SDS011;47864;52.526;19.672;2023-03-16T09:05:10;23.83;;;9.68;;
61907;SDS011;47864;52.526;19.672;2023-03-16T09:07:13;22.50;;;8.82;;
61907;SDS011;47864;52.526;19.672;2023-03-16T09:09:15;19.60;;;7.25;;
61907;SDS011;47864;52.526;19.672;2023-03-16T09:11:17;17.58;;;8.20;;
61907;SDS011;47864;52.526;19.672;2023-03-16T09:13:19;19.40;;;7.13;;
61907;SDS011;47864;52.526;19.672;2023-03-16T09:15:20;15.50;;;6.85;;
61907;SDS011;47864;52.526;19.672;2023-03-16T09:17:22;15.32;;;7.68;;
61907;SDS011;47864;52.526;19.672;2023-03-16T09:19:23;22.17;;;8.40;;
61907;SDS011;47864;52.526;19.672;2023-03-16T09:21:25;16.05;;;6.63;;
61907;SDS011;47864;52.526;19.672;2023-03-16T09:23:27;13.43;;;6.13;;
61907;SDS011;47864;52.526;19.672;2023-03-16T09:25:29;19.60;;;7.30;;
61907;SDS011;47864;52.526;19.672;2023-03-16T09:27:31;22.52;;;7.47;;
61907;SDS011;47864;52.526;19.672;2023-03-16T09:29:33;16.50;;;6.97;;
61907;SDS011;47864;52.526;19.672;2023-03-16T09:31:35;23.73;;;8.43;;
61907;SDS011;47864;52.526;19.672;2023-03-16T09:33:36;18.67;;;6.25;;
61907;SDS011;47864;52.526;19.672;2023-03-16T09:35:38;13.63;;;6.00;;
61907;SDS011;47864;52.526;19.672;2023-03-16T09:37:39;18.02;;;6.95;;
61907;SDS011;47864;52.526;19.672;2023-03-16T09:39:55;21.60;;;8.20;;
61907;SDS011;47864;52.526;19.672;2023-03-16T09:42:16;13.85;;;5.68;;
61907;SDS011;47864;52.526;19.672;2023-03-16T09:46:27;17.95;;;6.45;;
61907;SDS011;47864;52.526;19.672;2023-03-16T09:48:35;16.08;;;4.75;;
61907;SDS011;47864;52.526;19.672;2023-03-16T09:50:39;15.27;;;4.10;;
61907;SDS011;47864;52.526;19.672;2023-03-16T09:52:54;13.70;;;3.70;;
61907;SDS011;47864;52.526;19.672;2023-03-16T09:59:30;13.95;;;4.15;;
61907;SDS011;47864;52.526;19.672;2023-03-16T10:04:34;17.45;;;4.40;;
61907;SDS011;47864;52.526;19.672;2023-03-16T10:09:37;13.60;;;4.05;;
61907;SDS011;47864;52.526;19.672;2023-03-16T10:11:48;15.82;;;3.97;;
61907;SDS011;47864;52.526;19.672;2023-03-16T10:13:55;19.58;;;4.57;;
61907;SDS011;47864;52.526;19.672;2023-03-16T10:16:00;14.85;;;4.25;;
61907;SDS011;47864;52.526;19.672;2023-03-16T10:18:09;15.82;;;4.40;;
61907;SDS011;47864;52.526;19.672;2023-03-16T10:20:20;19.02;;;4.22;;
61907;SDS011;47864;52.526;19.672;2023-03-16T10:22:24;11.63;;;4.20;;
61907;SDS011;47864;52.526;19.672;2023-03-16T10:24:46;15.27;;;5.55;;
61907;SDS011;47864;52.526;19.672;2023-03-16T10:27:04;12.55;;;3.85;;
61907;SDS011;47864;52.526;19.672;2023-03-16T10:29:13;14.55;;;4.57;;
61907;SDS011;47864;52.526;19.672;2023-03-16T10:31:16;12.77;;;4.60;;
61907;SDS011;47864;52.526;19.672;2023-03-16T10:33:22;17.83;;;4.78;;
61907;SDS011;47864;52.526;19.672;2023-03-16T10:37:54;14.70;;;3.78;;
61907;SDS011;47864;52.526;19.672;2023-03-16T10:39:56;13.13;;;4.97;;
61907;SDS011;47864;52.526;19.672;2023-03-16T10:41:57;15.45;;;4.60;;
61907;SDS011;47864;52.526;19.672;2023-03-16T10:44:08;13.30;;;5.05;;
61907;SDS011;47864;52.526;19.672;2023-03-16T10:46:13;13.73;;;4.75;;
61907;SDS011;47864;52.526;19.672;2023-03-16T10:48:16;14.20;;;4.07;;
61907;SDS011;47864;52.526;19.672;2023-03-16T10:50:24;13.32;;;4.18;;
61907;SDS011;47864;52.526;19.672;2023-03-16T10:52:33;17.17;;;4.05;;
61907;SDS011;47864;52.526;19.672;2023-03-16T10:54:38;11.38;;;5.07;;
61907;SDS011;47864;52.526;19.672;2023-03-16T10:56:41;10.52;;;4.60;;
61907;SDS011;47864;52.526;19.672;2023-03-16T10:58:43;11.43;;;4.50;;
61907;SDS011;47864;52.526;19.672;2023-03-16T11:00:44;13.23;;;4.97;;
61907;SDS011;47864;52.526;19.672;2023-03-16T11:02:47;15.32;;;4.47;;
61907;SDS011;47864;52.526;19.672;2023-03-16T11:04:49;14.07;;;6.13;;
61907;SDS011;47864;52.526;19.672;2023-03-16T11:06:54;11.88;;;4.95;;
61907;SDS011;47864;52.526;19.672;2023-03-16T11:09:02;12.02;;;3.90;;
61907;SDS011;47864;52.526;19.672;2023-03-16T11:11:09;14.23;;;5.30;;
61907;SDS011;47864;52.526;19.672;2023-03-16T11:13:15;15.82;;;4.80;;
61907;SDS011;47864;52.526;19.672;2023-03-16T11:15:18;12.65;;;4.45;;
61907;SDS011;47864;52.526;19.672;2023-03-16T11:17:36;10.68;;;3.78;;
61907;SDS011;47864;52.526;19.672;2023-03-16T11:19:51;10.88;;;3.67;;
61907;SDS011;47864;52.526;19.672;2023-03-16T11:22:16;13.30;;;4.03;;
61907;SDS011;47864;52.526;19.672;2023-03-16T11:24:26;11.50;;;3.70;;
61907;SDS011;47864;52.526;19.672;2023-03-16T11:26:33;11.60;;;3.80;;
61907;SDS011;47864;52.526;19.672;2023-03-16T11:32:48;10.13;;;3.60;;
61907;SDS011;47864;52.526;19.672;2023-03-16T11:34:51;13.45;;;3.88;;
61907;SDS011;47864;52.526;19.672;2023-03-16T11:36:53;9.77;;;3.92;;
61907;SDS011;47864;52.526;19.672;2023-03-16T11:39:09;10.13;;;3.95;;
61907;SDS011;47864;52.526;19.672;2023-03-16T11:41:29;11.23;;;3.75;;
61907;SDS011;47864;52.526;19.672;2023-03-16T11:43:58;10.13;;;4.18;;
61907;SDS011;47864;52.526;19.672;2023-03-16T11:57:59;13.85;;;4.55;;
61907;SDS011;47864;52.526;19.672;2023-03-16T12:00:26;12.57;;;4.68;;
61907;SDS011;47864;52.526;19.672;2023-03-16T12:02:42;17.15;;;5.10;;
61907;SDS011;47864;52.526;19.672;2023-03-16T12:04:48;10.95;;;4.20;;
61907;SDS011;47864;52.526;19.672;2023-03-16T12:11:19;10.60;;;3.78;;
61907;SDS011;47864;52.526;19.672;2023-03-16T12:16:33;13.20;;;4.80;;
61907;SDS011;47864;52.526;19.672;2023-03-16T12:18:51;13.82;;;4.25;;
61907;SDS011;47864;52.526;19.672;2023-03-16T12:20:57;10.07;;;3.67;;
61907;SDS011;47864;52.526;19.672;2023-03-16T12:23:10;12.35;;;4.10;;
61907;SDS011;47864;52.526;19.672;2023-03-16T12:25:19;10.90;;;4.47;;
61907;SDS011;47864;52.526;19.672;2023-03-16T12:27:27;16.40;;;6.32;;
61907;SDS011;47864;52.526;19.672;2023-03-16T12:29:33;11.77;;;4.85;;
61907;SDS011;47864;52.526;19.672;2023-03-16T12:32:17;12.32;;;8.65;;
61907;SDS011;47864;52.526;19.672;2023-03-16T12:34:18;13.23;;;5.57;;
61907;SDS011;47864;52.526;19.672;2023-03-16T12:36:50;12.98;;;4.97;;
61907;SDS011;47864;52.526;19.672;2023-03-16T12:39:04;11.10;;;4.65;;